sensor_id;sensor_type;location;lat;lon;timestamp;temperature;humidity
68011;DHT22;54794;48.348;7.878;2022-09-04T00:00:38;20.50;61.40
68011;DHT22;54794;48.348;7.878;2022-09-04T00:03:27;20.40;61.50
68011;DHT22;54794;48.348;7.878;2022-09-04T00:05:57;20.40;61.40
68011;DHT22;54794;48.348;7.878;2022-09-04T00:13:36;20.30;61.60
68011;DHT22;54794;48.348;7.878;2022-09-04T00:16:16;20.30;62.00
68011;DHT22;54794;48.348;7.878;2022-09-04T00:18:48;20.20;61.50
68011;DHT22;54794;48.348;7.878;2022-09-04T00:21:49;20.20;61.70
68011;DHT22;54794;48.348;7.878;2022-09-04T00:24:31;20.20;61.60
68011;DHT22;54794;48.348;7.878;2022-09-04T00:29:51;20.10;61.60
68011;DHT22;54794;48.348;7.878;2022-09-04T00:35:02;20.00;61.80
68011;DHT22;54794;48.348;7.878;2022-09-04T00:37:41;20.00;61.80
68011;DHT22;54794;48.348;7.878;2022-09-04T00:42:42;20.00;61.70
68011;DHT22;54794;48.348;7.878;2022-09-04T00:48:34;20.00;62.00
68011;DHT22;54794;48.348;7.878;2022-09-04T01:00:08;19.90;62.40
68011;DHT22;54794;48.348;7.878;2022-09-04T01:05:49;19.90;62.20
68011;DHT22;54794;48.348;7.878;2022-09-04T01:14:15;19.80;62.20
68011;DHT22;54794;48.348;7.878;2022-09-04T01:17:01;19.80;62.50
68011;DHT22;54794;48.348;7.878;2022-09-04T01:22:54;19.80;62.40
68011;DHT22;54794;48.348;7.878;2022-09-04T01:28:34;19.70;62.90
68011;DHT22;54794;48.348;7.878;2022-09-04T01:31:15;19.70;62.60
68011;DHT22;54794;48.348;7.878;2022-09-04T01:36:55;19.60;62.60
68011;DHT22;54794;48.348;7.878;2022-09-04T01:39:26;19.70;62.50
68011;DHT22;54794;48.348;7.878;2022-09-04T01:44:48;19.60;62.50
68011;DHT22;54794;48.348;7.878;2022-09-04T01:47:16;19.60;62.60
68011;DHT22;54794;48.348;7.878;2022-09-04T01:50:10;19.60;62.90
68011;DHT22;54794;48.348;7.878;2022-09-04T01:52:56;19.50;62.90
68011;DHT22;54794;48.348;7.878;2022-09-04T01:55:33;19.60;62.80
68011;DHT22;54794;48.348;7.878;2022-09-04T02:03:34;19.50;62.80
68011;DHT22;54794;48.348;7.878;2022-09-04T02:06:30;19.50;62.80
68011;DHT22;54794;48.348;7.878;2022-09-04T02:09:13;19.40;62.80
68011;DHT22;54794;48.348;7.878;2022-09-04T02:11:46;19.50;62.90
68011;DHT22;54794;48.348;7.878;2022-09-04T02:14:46;19.50;62.80
68011;DHT22;54794;48.348;7.878;2022-09-04T02:18:11;19.50;63.10
68011;DHT22;54794;48.348;7.878;2022-09-04T02:20:22;19.50;62.90
68011;DHT22;54794;48.348;7.878;2022-09-04T02:25:43;19.50;62.90
68011;DHT22;54794;48.348;7.878;2022-09-04T02:39:13;19.30;62.70
68011;DHT22;54794;48.348;7.878;2022-09-04T02:44:41;19.30;62.70
68011;DHT22;54794;48.348;7.878;2022-09-04T02:47:32;19.30;62.70
68011;DHT22;54794;48.348;7.878;2022-09-04T02:55:33;19.30;62.90
68011;DHT22;54794;48.348;7.878;2022-09-04T02:58:18;19.30;63.10
68011;DHT22;54794;48.348;7.878;2022-09-04T03:01:01;19.30;63.10
68011;DHT22;54794;48.348;7.878;2022-09-04T03:04:07;19.30;62.80
68011;DHT22;54794;48.348;7.878;2022-09-04T03:09:45;19.20;63.10
68011;DHT22;54794;48.348;7.878;2022-09-04T03:26:42;19.10;63.50
68011;DHT22;54794;48.348;7.878;2022-09-04T04:10:06;18.70;63.70
68011;DHT22;54794;48.348;7.878;2022-09-04T04:13:26;18.70;63.70
68011;DHT22;54794;48.348;7.878;2022-09-04T04:21:50;18.70;63.60
68011;DHT22;54794;48.348;7.878;2022-09-04T04:27:28;18.70;63.70
68011;DHT22;54794;48.348;7.878;2022-09-04T04:30:19;18.70;63.70
68011;DHT22;54794;48.348;7.878;2022-09-04T05:00:45;18.60;64.10
68011;DHT22;54794;48.348;7.878;2022-09-04T05:06:24;18.60;64.10
68011;DHT22;54794;48.348;7.878;2022-09-04T05:14:40;18.60;64.40
68011;DHT22;54794;48.348;7.878;2022-09-04T05:28:49;18.60;64.90
68011;DHT22;54794;48.348;7.878;2022-09-04T05:31:29;18.50;64.70
68011;DHT22;54794;48.348;7.878;2022-09-04T05:39:08;18.60;64.80
68011;DHT22;54794;48.348;7.878;2022-09-04T05:44:37;18.60;64.90
68011;DHT22;54794;48.348;7.878;2022-09-04T05:47:21;18.60;64.70
68011;DHT22;54794;48.348;7.878;2022-09-04T05:52:48;18.60;65.10
68011;DHT22;54794;48.348;7.878;2022-09-04T06:06:11;18.70;65.10
68011;DHT22;54794;48.348;7.878;2022-09-04T06:14:24;18.80;65.10
68011;DHT22;54794;48.348;7.878;2022-09-04T06:17:27;18.80;65.10
68011;DHT22;54794;48.348;7.878;2022-09-04T06:22:56;18.80;65.10
68011;DHT22;54794;48.348;7.878;2022-09-04T06:39:53;19.20;65.70
68011;DHT22;54794;48.348;7.878;2022-09-04T06:42:52;19.20;65.80
68011;DHT22;54794;48.348;7.878;2022-09-04T06:48:44;19.30;65.90
68011;DHT22;54794;48.348;7.878;2022-09-04T06:51:32;19.40;66.10
68011;DHT22;54794;48.348;7.878;2022-09-04T07:00:02;19.70;66.20
68011;DHT22;54794;48.348;7.878;2022-09-04T07:22:53;20.50;66.60
68011;DHT22;54794;48.348;7.878;2022-09-04T07:25:36;20.70;66.60
68011;DHT22;54794;48.348;7.878;2022-09-04T07:28:11;20.80;66.70
68011;DHT22;54794;48.348;7.878;2022-09-04T07:30:47;20.90;66.80
68011;DHT22;54794;48.348;7.878;2022-09-04T07:36:17;21.10;66.90
68011;DHT22;54794;48.348;7.878;2022-09-04T07:38:59;21.30;66.70
68011;DHT22;54794;48.348;7.878;2022-09-04T07:44:30;21.50;66.50
68011;DHT22;54794;48.348;7.878;2022-09-04T07:47:14;21.60;66.60
68011;DHT22;54794;48.348;7.878;2022-09-04T07:49:51;21.70;66.60
68011;DHT22;54794;48.348;7.878;2022-09-04T07:55:44;22.00;66.10
68011;DHT22;54794;48.348;7.878;2022-09-04T08:06:21;22.40;66.00
68011;DHT22;54794;48.348;7.878;2022-09-04T08:17:13;22.90;66.10
68011;DHT22;54794;48.348;7.878;2022-09-04T08:22:56;23.20;66.10
68011;DHT22;54794;48.348;7.878;2022-09-04T08:31:03;23.50;66.10
68011;DHT22;54794;48.348;7.878;2022-09-04T08:33:43;23.70;65.90
68011;DHT22;54794;48.348;7.878;2022-09-04T08:39:37;24.00;65.60
68011;DHT22;54794;48.348;7.878;2022-09-04T08:42:20;24.10;65.60
68011;DHT22;54794;48.348;7.878;2022-09-04T08:45:10;24.20;65.40
68011;DHT22;54794;48.348;7.878;2022-09-04T08:51:05;24.50;65.20
68011;DHT22;54794;48.348;7.878;2022-09-04T08:53:58;24.60;65.20
68011;DHT22;54794;48.348;7.878;2022-09-04T09:27:21;26.10;64.30
68011;DHT22;54794;48.348;7.878;2022-09-04T09:30:52;26.10;63.90
68011;DHT22;54794;48.348;7.878;2022-09-04T09:37:05;26.50;63.90
68011;DHT22;54794;48.348;7.878;2022-09-04T09:51:32;27.00;62.50
68011;DHT22;54794;48.348;7.878;2022-09-04T10:05:10;27.50;63.00
68011;DHT22;54794;48.348;7.878;2022-09-04T10:13:52;27.70;61.90
68011;DHT22;54794;48.348;7.878;2022-09-04T10:22:51;27.90;60.70
68011;DHT22;54794;48.348;7.878;2022-09-04T10:28:08;27.90;60.50
68011;DHT22;54794;48.348;7.878;2022-09-04T10:36:54;28.00;59.60
68011;DHT22;54794;48.348;7.878;2022-09-04T10:42:24;28.20;60.60
68011;DHT22;54794;48.348;7.878;2022-09-04T10:45:01;28.30;60.10
68011;DHT22;54794;48.348;7.878;2022-09-04T10:53:17;28.40;59.60
68011;DHT22;54794;48.348;7.878;2022-09-04T10:55:59;28.50;59.80
68011;DHT22;54794;48.348;7.878;2022-09-04T11:01:27;28.70;59.70
68011;DHT22;54794;48.348;7.878;2022-09-04T11:44:04;30.10;57.20
68011;DHT22;54794;48.348;7.878;2022-09-04T11:46:41;30.20;56.50
68011;DHT22;54794;48.348;7.878;2022-09-04T11:57:28;30.60;56.20
68011;DHT22;54794;48.348;7.878;2022-09-04T12:02:59;30.80;54.90
68011;DHT22;54794;48.348;7.878;2022-09-04T12:31:07;31.80;53.30
68011;DHT22;54794;48.348;7.878;2022-09-04T12:45:25;32.30;54.30
68011;DHT22;54794;48.348;7.878;2022-09-04T12:51:14;32.50;53.40
68011;DHT22;54794;48.348;7.878;2022-09-04T12:56:35;32.70;52.10
68011;DHT22;54794;48.348;7.878;2022-09-04T13:07:44;33.00;51.60
68011;DHT22;54794;48.348;7.878;2022-09-04T13:13:18;33.20;50.80
68011;DHT22;54794;48.348;7.878;2022-09-04T13:22:08;33.40;50.40
68011;DHT22;54794;48.348;7.878;2022-09-04T13:24:56;33.50;50.10
68011;DHT22;54794;48.348;7.878;2022-09-04T13:30:22;33.60;49.40
68011;DHT22;54794;48.348;7.878;2022-09-04T13:32:54;33.60;51.30
68011;DHT22;54794;48.348;7.878;2022-09-04T13:35:48;33.70;51.10
68011;DHT22;54794;48.348;7.878;2022-09-04T13:41:58;33.80;50.50
68011;DHT22;54794;48.348;7.878;2022-09-04T13:47:25;34.00;50.40
68011;DHT22;54794;48.348;7.878;2022-09-04T13:55:37;34.00;48.40
68011;DHT22;54794;48.348;7.878;2022-09-04T13:58:18;34.00;48.10
68011;DHT22;54794;48.348;7.878;2022-09-04T14:00:51;34.00;48.10
68011;DHT22;54794;48.348;7.878;2022-09-04T14:03:39;34.10;47.60
68011;DHT22;54794;48.348;7.878;2022-09-04T14:06:12;34.10;45.70
68011;DHT22;54794;48.348;7.878;2022-09-04T14:08:42;34.10;47.10
68011;DHT22;54794;48.348;7.878;2022-09-04T14:17:03;34.30;47.00
68011;DHT22;54794;48.348;7.878;2022-09-04T14:39:25;34.50;46.60
68011;DHT22;54794;48.348;7.878;2022-09-04T14:47:39;34.60;45.30
68011;DHT22;54794;48.348;7.878;2022-09-04T14:50:08;34.60;45.60
68011;DHT22;54794;48.348;7.878;2022-09-04T14:52:42;34.50;43.10
68011;DHT22;54794;48.348;7.878;2022-09-04T14:55:15;34.50;43.10
68011;DHT22;54794;48.348;7.878;2022-09-04T14:57:49;34.50;45.30
68011;DHT22;54794;48.348;7.878;2022-09-04T15:00:20;34.50;44.60
68011;DHT22;54794;48.348;7.878;2022-09-04T15:05:35;34.50;43.40
68011;DHT22;54794;48.348;7.878;2022-09-04T15:08:23;34.50;44.10
68011;DHT22;54794;48.348;7.878;2022-09-04T15:11:09;34.50;42.80
68011;DHT22;54794;48.348;7.878;2022-09-04T15:14:07;34.50;43.80
68011;DHT22;54794;48.348;7.878;2022-09-04T15:16:55;34.50;42.20
68011;DHT22;54794;48.348;7.878;2022-09-04T15:22:46;34.50;43.10
68011;DHT22;54794;48.348;7.878;2022-09-04T15:28:16;34.40;43.00
68011;DHT22;54794;48.348;7.878;2022-09-04T15:33:59;34.40;42.90
68011;DHT22;54794;48.348;7.878;2022-09-04T15:36:28;34.30;41.30
68011;DHT22;54794;48.348;7.878;2022-09-04T15:38:56;34.20;41.70
68011;DHT22;54794;48.348;7.878;2022-09-04T15:54:57;34.10;40.20
68011;DHT22;54794;48.348;7.878;2022-09-04T15:57:44;34.10;41.80
68011;DHT22;54794;48.348;7.878;2022-09-04T16:00:19;34.00;41.90
68011;DHT22;54794;48.348;7.878;2022-09-04T16:02:56;34.00;41.60
68011;DHT22;54794;48.348;7.878;2022-09-04T16:05:43;34.00;41.00
68011;DHT22;54794;48.348;7.878;2022-09-04T16:11:28;33.90;41.50
68011;DHT22;54794;48.348;7.878;2022-09-04T16:14:41;33.80;40.90
68011;DHT22;54794;48.348;7.878;2022-09-04T16:16:54;33.70;39.50
68011;DHT22;54794;48.348;7.878;2022-09-04T16:22:41;33.60;40.00
68011;DHT22;54794;48.348;7.878;2022-09-04T16:25:22;33.60;40.40
68011;DHT22;54794;48.348;7.878;2022-09-04T16:27:59;33.50;38.50
68011;DHT22;54794;48.348;7.878;2022-09-04T16:30:40;33.50;40.30
68011;DHT22;54794;48.348;7.878;2022-09-04T16:33:19;33.40;39.80
68011;DHT22;54794;48.348;7.878;2022-09-04T16:36:03;33.30;39.40
68011;DHT22;54794;48.348;7.878;2022-09-04T16:38:44;33.20;39.90
68011;DHT22;54794;48.348;7.878;2022-09-04T16:41:25;33.20;39.70
68011;DHT22;54794;48.348;7.878;2022-09-04T16:46:54;33.00;39.80
68011;DHT22;54794;48.348;7.878;2022-09-04T16:55:43;32.70;40.10
68011;DHT22;54794;48.348;7.878;2022-09-04T16:58:29;32.60;39.80
68011;DHT22;54794;48.348;7.878;2022-09-04T17:12:34;31.90;39.90
68011;DHT22;54794;48.348;7.878;2022-09-04T17:17:50;31.60;40.00
68011;DHT22;54794;48.348;7.878;2022-09-04T17:20:30;31.50;39.90
68011;DHT22;54794;48.348;7.878;2022-09-04T17:23:26;31.30;39.80
68011;DHT22;54794;48.348;7.878;2022-09-04T17:26:27;31.10;39.90
68011;DHT22;54794;48.348;7.878;2022-09-04T17:29:27;30.90;40.10
68011;DHT22;54794;48.348;7.878;2022-09-04T17:32:14;30.70;40.20
68011;DHT22;54794;48.348;7.878;2022-09-04T17:38:33;30.30;40.40
68011;DHT22;54794;48.348;7.878;2022-09-04T17:41:27;30.20;40.40
68011;DHT22;54794;48.348;7.878;2022-09-04T17:47:31;29.80;40.50
68011;DHT22;54794;48.348;7.878;2022-09-04T17:50:00;29.70;40.50
68011;DHT22;54794;48.348;7.878;2022-09-04T17:52:31;29.50;40.70
68011;DHT22;54794;48.348;7.878;2022-09-04T17:55:09;29.40;40.90
68011;DHT22;54794;48.348;7.878;2022-09-04T18:00:08;29.10;41.00
68011;DHT22;54794;48.348;7.878;2022-09-04T18:02:51;28.90;41.10
68011;DHT22;54794;48.348;7.878;2022-09-04T18:05:44;28.80;41.20
68011;DHT22;54794;48.348;7.878;2022-09-04T18:10:54;28.50;41.40
68011;DHT22;54794;48.348;7.878;2022-09-04T18:13:42;28.40;41.40
68011;DHT22;54794;48.348;7.878;2022-09-04T18:34:45;27.60;41.90
68011;DHT22;54794;48.348;7.878;2022-09-04T18:37:39;27.40;41.80
68011;DHT22;54794;48.348;7.878;2022-09-04T18:46:03;27.00;42.00
68011;DHT22;54794;48.348;7.878;2022-09-04T18:48:58;26.90;42.00
68011;DHT22;54794;48.348;7.878;2022-09-04T18:51:50;26.70;42.10
68011;DHT22;54794;48.348;7.878;2022-09-04T18:57:44;26.50;42.10
68011;DHT22;54794;48.348;7.878;2022-09-04T18:59:47;26.30;42.20
68011;DHT22;54794;48.348;7.878;2022-09-04T19:02:26;26.30;42.30
68011;DHT22;54794;48.348;7.878;2022-09-04T19:04:58;26.20;42.40
68011;DHT22;54794;48.348;7.878;2022-09-04T19:07:29;26.10;42.40
68011;DHT22;54794;48.348;7.878;2022-09-04T19:12:51;25.90;42.50
68011;DHT22;54794;48.348;7.878;2022-09-04T19:15:25;25.80;43.00
68011;DHT22;54794;48.348;7.878;2022-09-04T19:18:14;25.70;42.80
68011;DHT22;54794;48.348;7.878;2022-09-04T19:23:55;25.50;42.70
68011;DHT22;54794;48.348;7.878;2022-09-04T19:29:27;25.30;42.90
68011;DHT22;54794;48.348;7.878;2022-09-04T19:32:21;25.20;43.20
68011;DHT22;54794;48.348;7.878;2022-09-04T19:37:45;25.00;43.10
68011;DHT22;54794;48.348;7.878;2022-09-04T19:43:46;24.80;43.20
68011;DHT22;54794;48.348;7.878;2022-09-04T19:53:00;24.60;43.60
68011;DHT22;54794;48.348;7.878;2022-09-04T19:55:58;24.50;43.60
68011;DHT22;54794;48.348;7.878;2022-09-04T19:58:38;24.50;43.80
68011;DHT22;54794;48.348;7.878;2022-09-04T20:01:17;24.40;43.90
68011;DHT22;54794;48.348;7.878;2022-09-04T20:03:49;24.40;43.80
68011;DHT22;54794;48.348;7.878;2022-09-04T20:06:26;24.30;43.70
68011;DHT22;54794;48.348;7.878;2022-09-04T20:11:24;24.30;43.90
68011;DHT22;54794;48.348;7.878;2022-09-04T20:14:04;24.20;44.10
68011;DHT22;54794;48.348;7.878;2022-09-04T20:16:52;24.20;44.60
68011;DHT22;54794;48.348;7.878;2022-09-04T20:19:38;24.10;43.70
68011;DHT22;54794;48.348;7.878;2022-09-04T20:22:31;24.10;44.00
68011;DHT22;54794;48.348;7.878;2022-09-04T20:27:53;24.00;44.20
68011;DHT22;54794;48.348;7.878;2022-09-04T20:30:25;23.90;44.30
68011;DHT22;54794;48.348;7.878;2022-09-04T20:33:05;23.90;44.70
68011;DHT22;54794;48.348;7.878;2022-09-04T20:35:38;23.80;44.50
68011;DHT22;54794;48.348;7.878;2022-09-04T20:40:56;23.70;44.70
68011;DHT22;54794;48.348;7.878;2022-09-04T20:46:36;23.60;44.70
68011;DHT22;54794;48.348;7.878;2022-09-04T20:52:22;23.40;45.30
68011;DHT22;54794;48.348;7.878;2022-09-04T21:01:11;23.20;44.90
68011;DHT22;54794;48.348;7.878;2022-09-04T21:10:39;23.10;45.60
68011;DHT22;54794;48.348;7.878;2022-09-04T21:21:42;22.90;45.60
68011;DHT22;54794;48.348;7.878;2022-09-04T21:25:00;22.90;45.70
68011;DHT22;54794;48.348;7.878;2022-09-04T21:30:38;22.70;45.70
68011;DHT22;54794;48.348;7.878;2022-09-04T21:36:16;22.70;45.90
68011;DHT22;54794;48.348;7.878;2022-09-04T21:45:07;22.50;46.20
68011;DHT22;54794;48.348;7.878;2022-09-04T21:51:12;22.50;46.40
68011;DHT22;54794;48.348;7.878;2022-09-04T21:57:11;22.40;46.40
68011;DHT22;54794;48.348;7.878;2022-09-04T22:00:14;22.40;46.00
68011;DHT22;54794;48.348;7.878;2022-09-04T22:03:08;22.40;46.70
68011;DHT22;54794;48.348;7.878;2022-09-04T22:09:13;22.40;48.10
68011;DHT22;54794;48.348;7.878;2022-09-04T22:15:12;22.30;46.90
68011;DHT22;54794;48.348;7.878;2022-09-04T22:34:13;22.00;47.00
68011;DHT22;54794;48.348;7.878;2022-09-04T22:56:14;21.70;47.80
68011;DHT22;54794;48.348;7.878;2022-09-04T22:59:13;21.70;47.60
68011;DHT22;54794;48.348;7.878;2022-09-04T23:05:32;21.70;47.40
68011;DHT22;54794;48.348;7.878;2022-09-04T23:37:58;21.40;48.30
68011;DHT22;54794;48.348;7.878;2022-09-04T23:40:46;21.40;48.20
68011;DHT22;54794;48.348;7.878;2022-09-04T23:51:37;21.30;48.50
68011;DHT22;54794;48.348;7.878;2022-09-04T23:57:02;21.20;48.60
